Time;durP1;ratioP1;P1;durP2;ratioP2;P2;SDS_P1;SDS_P2;PMS_P1;PMS_P2;Temp;Humidity;BMP_temperature;BMP_pressure;BME280_temperature;BME280_humidity;BME280_pressure;Samples;Min_cycle;Max_cycle;Signal;HPM_P1;HPM_P2
2024/01/08 00:02:12;;;;;;;243.32;9.77;;;;;;;20.67;49.31;100121.13;7288799;19;131247;-40
2024/01/08 00:04:38;;;;;;;250.88;9.57;;;;;;;20.85;49.76;100147.56;7285273;19;129670;-39
2024/01/08 00:07:03;;;;;;;210.77;8.38;;;;;;;20.83;49.72;100151.25;7288300;19;130386;-41
2024/01/08 00:09:28;;;;;;;247.10;10.27;;;;;;;20.85;49.55;100147.56;7287412;19;130101;-36
2024/01/08 00:11:54;;;;;;;213.43;8.05;;;;;;;20.84;49.66;100145.91;7287713;19;129342;-38
2024/01/08 00:14:19;;;;;;;226.05;8.70;;;;;;;20.83;49.79;100149.47;7289625;19;130230;-37
2024/01/08 00:16:45;;;;;;;216.82;8.80;;;;;;;20.87;49.31;100145.69;7289095;19;131069;-41
2024/01/08 00:19:10;;;;;;;245.30;10.05;;;;;;;20.81;49.16;100151.38;7292991;19;131839;-40
2024/01/08 00:21:35;;;;;;;359.73;14.40;;;;;;;20.85;50.24;100152.81;7294545;19;129491;-36
2024/01/08 00:24:01;;;;;;;179.10;7.25;;;;;;;20.84;49.96;100153.72;7293736;19;130338;-37
2024/01/08 00:26:26;;;;;;;210.73;8.18;;;;;;;20.83;49.84;100154.69;7294799;19;131205;-39
2024/01/08 00:28:51;;;;;;;292.47;11.23;;;;;;;20.83;49.62;100154.69;7293420;19;131073;-40
2024/01/08 00:31:17;;;;;;;232.00;9.52;;;;;;;20.87;49.81;100156.13;7292313;19;131026;-41
2024/01/08 00:33:42;;;;;;;287.73;12.02;;;;;;;20.85;50.04;100152.81;7289521;19;131909;-35
2024/01/08 00:36:08;;;;;;;199.77;7.97;;;;;;;20.85;49.59;100151.97;7291835;19;129815;-37
2024/01/08 00:38:33;;;;;;;341.85;14.27;;;;;;;20.85;49.48;100157.19;7286387;19;131271;-37
2024/01/08 00:40:58;;;;;;;289.50;11.55;;;;;;;20.85;49.27;100155.41;7292537;19;130180;-36
2024/01/08 00:43:24;;;;;;;344.17;14.45;;;;;;;20.84;49.83;100158.16;7293221;19;131578;-40
2024/01/08 00:45:49;;;;;;;235.43;8.93;;;;;;;20.84;49.32;100160.75;7295243;19;131212;-38
2024/01/08 00:48:15;;;;;;;162.98;6.70;;;;;;;20.83;49.64;100159.91;7291726;19;130085;-36
2024/01/08 00:50:40;;;;;;;186.13;7.50;;;;;;;20.81;49.66;100153.16;7296901;19;131006;-40
2024/01/08 00:53:06;;;;;;;264.10;10.53;;;;;;;20.83;49.64;100157.31;7295892;19;131358;-41
2024/01/08 00:55:31;;;;;;;267.98;10.45;;;;;;;20.84;49.82;100153.72;7294801;19;129374;-41
2024/01/08 00:57:58;;;;;;;193.70;7.50;;;;;;;20.85;49.62;100160.63;7295436;19;129317;-36
2024/01/08 01:00:24;;;;;;;195.23;7.65;;;;;;;20.84;49.57;100150.31;7295596;19;130475;-42
2024/01/08 01:02:49;;;;;;;187.85;7.28;;;;;;;20.85;49.50;100160.63;7296670;19;132083;-41
2024/01/08 01:05:14;;;;;;;283.48;11.32;;;;;;;20.84;49.75;100161.56;7295985;19;131397;-37
2024/01/08 01:07:40;;;;;;;192.57;7.53;;;;;;;20.66;49.87;100129.91;7294092;19;129737;-36
2024/01/08 01:10:05;;;;;;;198.55;7.88;;;;;;;20.82;49.58;100168.72;7293468;19;131146;-37
2024/01/08 01:12:31;;;;;;;233.50;9.45;;;;;;;20.82;49.64;100168.72;7294816;19;130964;-38
2024/01/08 01:14:56;;;;;;;261.85;9.90;;;;;;;20.84;49.73;100156.34;7293462;19;129295;-40
2024/01/08 01:17:21;;;;;;;108.35;4.50;;;;;;;20.86;49.78;100164.91;7292833;19;129396;-43
2024/01/08 01:19:47;;;;;;;198.27;7.55;;;;;;;20.81;49.56;100166.25;7294081;19;131047;-43
2024/01/08 01:22:12;;;;;;;219.70;8.90;;;;;;;20.84;49.90;100166.81;7294705;19;131161;-38
2024/01/08 01:24:38;;;;;;;242.30;9.38;;;;;;;20.79;49.49;100174.19;7294840;19;131066;-38
2024/01/08 01:27:03;;;;;;;204.15;8.25;;;;;;;20.82;49.37;100167.88;7294781;19;131943;-39
2024/01/08 01:29:29;;;;;;;178.80;7.05;;;;;;;20.83;49.71;100170.38;7292206;19;130277;-38
2024/01/08 01:31:54;;;;;;;231.27;9.13;;;;;;;20.83;49.48;100170.38;7293050;19;129498;-39
2024/01/08 01:34:19;;;;;;;240.70;9.95;;;;;;;20.84;49.55;100177.25;7294370;19;130179;-39
2024/01/08 01:36:48;;;;;;;193.40;7.75;;;;;;;20.85;49.90;100173.72;7294024;19;130636;-39
2024/01/08 01:39:14;;;;;;;203.48;8.20;;;;;;;20.86;49.40;100175.34;7294437;19;130073;-39
2024/01/08 01:41:39;;;;;;;245.88;9.73;;;;;;;20.84;49.74;100181.66;7292477;19;131935;-45
2024/01/08 01:44:04;;;;;;;208.23;8.23;;;;;;;20.84;49.43;100182.47;7293075;19;129824;-39
2024/01/08 01:46:43;;;;;;;191.55;7.32;;;;;;;20.83;49.60;100177.38;7291762;19;129622;-38
2024/01/08 01:49:11;;;;;;;222.15;8.60;;;;;;;20.86;49.68;100180.59;7293260;19;130194;-39
2024/01/08 01:51:41;;;;;;;220.45;8.73;;;;;;;20.83;49.63;100182.59;7292685;19;133004;-40
2024/01/08 01:54:07;;;;;;;275.80;10.63;;;;;;;20.85;49.98;100185.94;7292792;19;129477;-39
2024/01/08 01:56:34;;;;;;;250.77;9.80;;;;;;;20.82;49.32;100181.78;7293315;19;129457;-38
2024/01/08 01:59:03;;;;;;;191.70;7.40;;;;;;;20.82;49.59;100184.41;7294206;19;129895;-39
2024/01/08 02:01:29;;;;;;;206.02;8.18;;;;;;;20.74;49.02;100178.97;7294216;19;130400;-39
2024/01/08 02:03:55;;;;;;;327.70;12.52;;;;;;;20.86;49.36;100191.03;7292220;19;129787;-39
2024/01/08 02:06:22;;;;;;;204.98;8.02;;;;;;;20.80;49.28;100181.06;7289729;19;129660;-38
2024/01/08 02:08:48;;;;;;;162.40;6.65;;;;;;;20.84;49.34;100187.72;7292535;19;133208;-39
2024/01/08 02:11:15;;;;;;;211.52;8.63;;;;;;;20.66;49.60;100157.78;7293201;19;130491;-39
2024/01/08 02:13:41;;;;;;;252.77;9.80;;;;;;;20.83;49.67;100188.66;7293221;19;129148;-38
2024/01/08 02:16:06;;;;;;;168.88;6.60;;;;;;;20.79;49.52;100192.50;7290461;19;129536;-39
2024/01/08 02:18:31;;;;;;;226.48;9.20;;;;;;;20.83;49.14;100196.50;7293586;19;130657;-39
2024/01/08 02:20:57;;;;;;;154.73;6.38;;;;;;;20.82;49.09;100197.47;7293313;19;129797;-42
2024/01/08 02:23:22;;;;;;;258.27;10.30;;;;;;;20.83;49.18;100198.28;7292669;19;130790;-42
2024/01/08 02:25:47;;;;;;;242.27;9.55;;;;;;;20.87;49.40;100203.16;7292816;19;130529;-39
2024/01/08 02:28:13;;;;;;;212.63;8.45;;;;;;;20.84;49.43;100197.34;7292273;19;129419;-40
2024/01/08 02:30:38;;;;;;;152.10;5.93;;;;;;;20.83;49.06;100204.34;7293402;19;129553;-40
2024/01/08 02:33:04;;;;;;;233.48;9.65;;;;;;;20.84;49.72;100203.38;7292669;19;130668;-42
2024/01/08 02:35:29;;;;;;;174.43;7.13;;;;;;;20.85;49.43;100204.22;7293140;19;130362;-42
2024/01/08 02:37:54;;;;;;;162.25;7.07;;;;;;;20.70;49.51;100177.53;7293722;19;130189;-40
2024/01/08 02:40:20;;;;;;;278.40;11.13;;;;;;;20.85;49.43;100204.22;7289700;19;130310;-40
2024/01/08 02:42:45;;;;;;;200.25;8.02;;;;;;;20.67;49.50;100180.38;7293466;19;129968;-40
2024/01/08 02:45:10;;;;;;;177.00;6.90;;;;;;;20.83;49.77;100209.56;7291849;19;129861;-41
2024/01/08 02:47:37;;;;;;;197.90;8.15;;;;;;;20.82;49.12;100217.53;7291881;19;130224;-37
2024/01/08 02:50:09;;;;;;;;;;;;;;;20.82;50.31;100225.38;7292960;19;131179;-42
2024/01/08 02:52:34;;;;;;;253.90;10.18;;;;;;;20.80;49.25;100220.28;7292085;19;130786;-39
2024/01/08 02:55:00;;;;;;;181.15;7.50;;;;;;;20.84;49.53;100229.53;7292929;19;130178;-37
2024/01/08 02:57:29;;;;;;;135.15;5.57;;;;;;;20.83;49.51;100227.88;7292134;19;132260;-38
2024/01/08 02:59:55;;;;;;;262.67;10.65;;;;;;;20.84;50.00;100239.97;7291322;19;131461;-36
2024/01/08 03:02:22;;;;;;;253.38;10.07;;;;;;;20.83;49.90;100238.31;7291805;19;129316;-39
2024/01/08 03:04:47;;;;;;;207.75;8.35;;;;;;;20.81;49.44;100250.66;7291242;19;129261;-41
2024/01/08 03:07:17;;;;;;;180.00;7.45;;;;;;;20.80;49.93;100249.03;7288343;19;130271;-36
2024/01/08 03:09:44;;;;;;;252.07;10.15;;;;;;;20.84;50.07;100257.47;7290722;19;129844;-37
2024/01/08 03:12:09;;;;;;;220.80;8.68;;;;;;;20.83;49.92;100259.22;7293021;19;129708;-39
2024/01/08 03:14:35;;;;;;;220.43;8.77;;;;;;;20.85;49.86;100262.56;7290829;19;129591;-40
2024/01/08 03:17:00;;;;;;;186.93;7.53;;;;;;;20.82;49.47;100267.19;7286082;19;130169;-38
2024/01/08 03:19:25;;;;;;;220.68;9.38;;;;;;;20.71;49.82;100247.09;7291693;19;132709;-37
2024/01/08 03:21:51;;;;;;;253.63;10.47;;;;;;;20.77;49.60;100267.56;7291538;19;132171;-37
2024/01/08 03:24:16;;;;;;;205.55;8.55;;;;;;;20.85;49.11;100277.41;7284479;19;130605;-38
2024/01/08 03:26:41;;;;;;;219.68;9.20;;;;;;;20.85;49.75;100278.25;7289270;19;130089;-38
2024/01/08 03:29:07;;;;;;;221.20;8.73;;;;;;;20.86;50.24;100274.66;7290592;19;130007;-39
2024/01/08 03:31:32;;;;;;;258.03;10.60;;;;;;;20.83;49.39;100279.28;7291238;19;129642;-37
2024/01/08 03:33:57;;;;;;;182.48;7.25;;;;;;;20.83;49.18;100281.91;7289671;19;130308;-37
2024/01/08 03:36:23;;;;;;;207.40;8.73;;;;;;;20.84;49.22;100281.78;7289011;19;130437;-38
2024/01/08 03:38:48;;;;;;;256.77;10.27;;;;;;;20.79;49.70;100273.50;7292555;19;133941;-41
2024/01/08 03:41:15;;;;;;;212.30;8.60;;;;;;;20.84;49.28;100289.63;7292200;19;131263;-40
2024/01/08 03:43:43;;;;;;;177.75;7.03;;;;;;;20.81;49.64;100289.88;7290183;19;131224;-40
2024/01/08 03:46:09;;;;;;;244.48;9.95;;;;;;;20.84;49.71;100292.25;7288713;19;130189;-36
2024/01/08 03:48:34;;;;;;;198.38;7.65;;;;;;;20.66;49.56;100267.53;7289640;19;130369;-36
2024/01/08 03:50:59;;;;;;;201.77;7.83;;;;;;;20.79;49.33;100294.41;7291876;19;130582;-39
2024/01/08 03:53:25;;;;;;;218.27;9.00;;;;;;;20.81;49.60;100299.50;7294409;19;129138;-40
2024/01/08 03:55:50;;;;;;;211.73;8.18;;;;;;;20.76;49.47;100297.22;7297573;19;130929;-40
2024/01/08 03:58:15;;;;;;;251.93;10.32;;;;;;;20.82;49.25;100304.63;7298189;19;131246;-38
2024/01/08 04:00:41;;;;;;;194.70;8.23;;;;;;;20.81;49.90;100313.38;7297270;19;129559;-35
2024/01/08 04:03:06;;;;;;;132.05;5.88;;;;;;;20.82;49.10;100316.84;7297325;19;129898;-37
2024/01/08 04:05:31;;;;;;;257.35;10.63;;;;;;;20.82;49.33;100314.22;7294245;19;129847;-41
2024/01/08 04:07:57;;;;;;;253.15;9.73;;;;;;;20.81;49.29;100317.81;7297597;19;130727;-41
2024/01/08 04:10:23;;;;;;;218.05;8.57;;;;;;;20.81;49.63;100316.00;7297189;19;131250;-41
2024/01/08 04:12:48;;;;;;;198.00;8.60;;;;;;;20.79;49.21;100317.94;7296956;19;129049;-38
2024/01/08 04:15:13;;;;;;;375.40;15.40;;;;;;;20.78;49.20;100316.25;7294319;19;132906;-37
2024/01/08 04:17:39;;;;;;;228.65;9.68;;;;;;;20.82;49.67;100322.91;7298205;19;131535;-39
2024/01/08 04:20:05;;;;;;;227.55;9.30;;;;;;;20.85;49.19;100329.66;7298138;19;129508;-39
2024/01/08 04:22:30;;;;;;;182.97;7.33;;;;;;;20.60;49.07;100300.19;7295213;19;130586;-42
2024/01/08 04:24:55;;;;;;;244.80;9.65;;;;;;;20.80;49.09;100335.25;7295213;19;130841;-39
2024/01/08 04:27:21;;;;;;;198.85;8.50;;;;;;;20.80;49.53;100332.66;7295350;19;130505;-42
2024/01/08 04:29:46;;;;;;;164.90;6.85;;;;;;;20.82;49.57;100342.97;7296560;19;129118;-42
2024/01/08 04:32:11;;;;;;;219.52;8.65;;;;;;;20.82;49.65;100354.28;7296107;19;129714;-39
2024/01/08 04:34:37;;;;;;;237.00;9.57;;;;;;;20.76;49.02;100357.34;7296016;19;129497;-43
2024/01/08 04:37:02;;;;;;;176.02;7.07;;;;;;;20.77;49.48;100365.06;7293551;19;132871;-43
2024/01/08 04:39:28;;;;;;;224.60;9.55;;;;;;;20.83;50.15;100371.59;7297395;19;131075;-40
2024/01/08 04:41:54;;;;;;;232.05;9.48;;;;;;;20.81;49.59;100370.88;7296352;19;131763;-39
2024/01/08 04:44:19;;;;;;;191.45;7.57;;;;;;;20.78;49.09;100376.34;7293173;19;130547;-43
2024/01/08 04:46:45;;;;;;;124.28;5.38;;;;;;;20.80;49.57;100374.47;7293215;19;130948;-43
2024/01/08 04:49:11;;;;;;;246.25;10.05;;;;;;;20.82;49.15;100376.94;7296127;19;129166;-39
2024/01/08 04:51:36;;;;;;;270.35;10.82;;;;;;;20.77;49.24;100385.97;7296627;19;131217;-40
2024/01/08 04:54:02;;;;;;;225.98;9.10;;;;;;;20.73;49.90;100395.00;7296598;19;131224;-38
2024/01/08 04:56:30;;;;;;;177.55;7.47;;;;;;;20.73;49.04;100395.00;7293007;19;130737;-44
2024/01/08 04:58:56;;;;;;;238.55;9.77;;;;;;;20.78;49.76;100397.25;7296080;19;132510;-40
2024/01/08 05:01:21;;;;;;;236.23;9.50;;;;;;;20.79;49.70;100400.72;7295978;19;129985;-42
2024/01/08 05:03:47;;;;;;;216.20;8.85;;;;;;;20.82;49.77;100401.31;7291776;19;131590;-42
2024/01/08 05:06:13;;;;;;;279.27;11.43;;;;;;;20.77;49.72;100405.22;7291595;19;129910;-41
2024/01/08 05:08:39;;;;;;;278.97;11.53;;;;;;;20.79;49.99;100409.38;7294549;19;129361;-40
2024/01/08 05:11:08;;;;;;;263.83;10.82;;;;;;;20.77;49.38;100405.22;7292577;19;129967;-44
2024/01/08 05:13:34;;;;;;;221.27;8.98;;;;;;;20.76;49.30;100419.22;7295114;19;130297;-40
2024/01/08 05:16:00;;;;;;;209.38;8.68;;;;;;;20.71;49.39;100417.78;7294795;19;132553;-42
2024/01/08 05:18:26;;;;;;;186.68;8.18;;;;;;;20.72;48.98;100422.06;7293680;19;129748;-41
2024/01/08 05:20:51;;;;;;;294.08;11.63;;;;;;;20.73;49.57;100430.72;7294174;19;130749;-38
2024/01/08 05:23:17;;;;;;;183.07;7.43;;;;;;;20.65;50.28;100412.19;7291627;19;129977;-41
2024/01/08 05:25:42;;;;;;;212.90;8.85;;;;;;;20.71;49.63;100427.38;7289170;19;131649;-40
2024/01/08 05:28:08;;;;;;;227.57;9.23;;;;;;;20.73;50.61;100436.81;7293243;19;131795;-42
2024/01/08 05:30:34;;;;;;;291.80;12.07;;;;;;;20.70;50.13;100441.41;7293021;19;129679;-39
2024/01/08 05:33:00;;;;;;;228.88;9.27;;;;;;;20.64;50.33;100441.88;7286406;19;130223;-42
2024/01/08 05:35:25;;;;;;;321.17;13.87;;;;;;;20.67;50.29;100437.25;7283982;19;130507;-43
2024/01/08 05:37:50;;;;;;;276.92;11.23;;;;;;;20.68;50.06;100443.31;7288920;19;130879;-39
2024/01/08 05:40:16;;;;;;;372.73;14.75;;;;;;;20.67;50.05;100442.50;7291452;19;129504;-45
2024/01/08 05:42:41;;;;;;;310.75;13.82;;;;;;;20.57;50.60;100438.88;7292647;19;130162;-41
2024/01/08 05:45:07;;;;;;;329.02;13.63;;;;;;;20.50;50.33;100444.66;7289852;19;132910;-42
2024/01/08 05:47:34;;;;;;;216.27;9.23;;;;;;;20.45;50.39;100452.00;7291670;19;130367;-38
2024/01/08 05:50:00;;;;;;;;;;;;;;;20.43;52.53;100451.25;7293249;19;129151;-39
2024/01/08 05:52:25;;;;;;;198.75;8.25;;;;;;;20.50;50.21;100453.34;7292629;19;132818;-40
2024/01/08 05:54:50;;;;;;;244.00;10.10;;;;;;;20.39;50.80;100457.66;7294615;19;133372;-42
2024/01/08 05:57:15;;;;;;;269.63;11.07;;;;;;;20.53;50.31;100460.09;7290864;19;129692;-39
2024/01/08 05:59:41;;;;;;;202.68;8.55;;;;;;;20.46;51.66;100456.28;7293991;19;129175;-40
2024/01/08 06:02:06;;;;;;;152.25;6.60;;;;;;;20.31;50.93;100433.91;7290513;19;129595;-38
2024/01/08 06:04:31;;;;;;;214.20;8.88;;;;;;;20.57;50.09;100461.56;7290336;19;130896;-43
2024/01/08 06:06:57;;;;;;;245.40;9.80;;;;;;;20.64;49.98;100473.22;7291885;19;130551;-43
2024/01/08 06:09:22;;;;;;;183.23;7.85;;;;;;;20.67;49.20;100460.78;7293650;19;132176;-40
2024/01/08 06:11:48;;;;;;;217.07;9.15;;;;;;;20.55;49.69;100443.38;7292408;19;129913;-38
2024/01/08 06:14:13;;;;;;;203.95;8.48;;;;;;;20.68;49.73;100464.22;7287858;19;130238;-43
2024/01/08 06:16:38;;;;;;;299.27;12.55;;;;;;;20.75;49.57;100475.88;7287067;19;129487;-42
2024/01/08 06:19:04;;;;;;;198.82;8.75;;;;;;;20.69;49.31;100478.97;7293984;19;129619;-40
2024/01/08 06:21:29;;;;;;;207.80;8.57;;;;;;;20.69;49.16;100482.38;7292095;19;130975;-41
2024/01/08 06:23:55;;;;;;;212.55;8.95;;;;;;;20.75;48.99;100491.56;7289881;19;131755;-39
2024/01/08 06:26:21;;;;;;;274.25;11.25;;;;;;;20.72;50.00;100491.78;7288814;19;129531;-38
2024/01/08 06:28:46;;;;;;;212.80;8.65;;;;;;;20.73;49.11;100493.44;7292699;19;130013;-44
2024/01/08 06:31:13;;;;;;;177.85;7.45;;;;;;;20.59;49.60;100470.94;7292986;19;129617;-42
2024/01/08 06:33:38;;;;;;;216.18;8.77;;;;;;;20.71;49.60;100496.19;7292246;19;132059;-40
2024/01/08 06:36:04;;;;;;;253.25;10.02;;;;;;;20.73;49.56;100503.91;7292711;19;129013;-37
2024/01/08 06:38:29;;;;;;;176.63;7.40;;;;;;;20.72;49.32;100508.28;7292736;19;132928;-39
2024/01/08 06:40:55;;;;;;;192.80;7.82;;;;;;;20.78;49.95;100507.00;7290270;19;130442;-40
2024/01/08 06:43:20;;;;;;;231.38;9.65;;;;;;;20.75;49.27;100515.09;7290414;19;130190;-38
2024/01/08 06:45:45;;;;;;;175.55;7.28;;;;;;;20.75;49.56;100530.75;7287978;19;129418;-42
2024/01/08 06:48:11;;;;;;;213.38;9.02;;;;;;;20.72;49.66;100523.16;7286423;19;129718;-36
2024/01/08 06:50:38;;;;;;;175.57;7.63;;;;;;;20.77;49.20;100530.66;7291065;19;132719;-38
2024/01/08 06:53:03;;;;;;;251.13;10.48;;;;;;;20.62;49.47;100496.03;7286915;19;131417;-40
2024/01/08 06:55:32;;;;;;;149.35;6.75;;;;;;;20.76;49.49;100529.81;7288883;19;131417;-38
2024/01/08 06:57:57;;;;;;;239.77;10.32;;;;;;;20.77;49.08;100530.66;7291961;19;132335;-41
2024/01/08 07:00:23;;;;;;;195.20;8.60;;;;;;;20.76;48.76;100537.63;7290497;19;131246;-37
2024/01/08 07:02:49;;;;;;;286.70;12.32;;;;;;;20.77;49.18;100546.31;7290124;19;130905;-32
2024/01/08 07:05:15;;;;;;;183.23;7.75;;;;;;;20.77;49.09;100555.81;7291148;19;129840;-36
2024/01/08 07:07:40;;;;;;;241.23;10.20;;;;;;;20.78;49.22;100554.06;7288856;19;129609;-38
2024/01/08 07:10:06;;;;;;;183.70;8.10;;;;;;;20.80;48.84;100557.41;7290727;19;130922;-42
2024/01/08 07:12:31;;;;;;;283.65;11.98;;;;;;;20.74;49.16;100563.06;7287828;19;130857;-34
2024/01/08 07:14:57;;;;;;;107.53;5.07;;;;;;;20.72;49.16;100565.78;7291632;19;129372;-33
2024/01/08 07:17:23;;;;;;;113.47;5.47;;;;;;;20.77;49.02;100562.84;7290484;19;130763;-38
2024/01/08 07:19:49;;;;;;;252.18;11.23;;;;;;;20.75;49.59;100564.72;7287854;19;130313;-41
2024/01/08 07:22:14;;;;;;;271.52;11.02;;;;;;;20.73;49.06;100570.06;7288430;19;132918;-40
2024/01/08 07:24:39;;;;;;;336.70;14.30;;;;;;;20.74;49.52;100570.91;7287694;19;130429;-39
2024/01/08 07:27:04;;;;;;;215.35;9.27;;;;;;;20.75;49.59;100569.97;7286475;19;130825;-38
2024/01/08 07:29:30;;;;;;;204.97;8.73;;;;;;;20.78;49.47;100572.34;7289445;19;131700;-38
2024/01/08 07:31:55;;;;;;;206.90;8.73;;;;;;;20.63;48.80;100547.31;7290419;19;131048;-38
2024/01/08 07:34:20;;;;;;;121.22;5.53;;;;;;;20.80;49.59;100573.06;7288944;19;129372;-35
2024/01/08 07:36:46;;;;;;;204.38;8.93;;;;;;;20.72;48.95;100572.78;7284079;19;129983;-38
2024/01/08 07:39:14;;;;;;;220.43;9.45;;;;;;;20.59;49.43;100553.72;7290410;19;133639;-35
2024/01/08 07:41:43;;;;;;;325.83;13.52;;;;;;;20.74;49.08;100573.53;7287638;19;132805;-35
2024/01/08 07:44:08;;;;;;;191.15;8.32;;;;;;;20.71;49.60;100573.72;7291519;19;129309;-39
2024/01/08 07:46:33;;;;;;;215.13;9.45;;;;;;;20.78;49.92;100580.19;7281450;19;129554;-35
2024/01/08 07:48:59;;;;;;;216.45;9.18;;;;;;;20.59;49.62;100558.94;7288165;19;130169;-35
2024/01/08 07:51:25;;;;;;;280.45;11.45;;;;;;;20.76;49.44;100587.28;7289197;19;129287;-37
2024/01/08 07:53:52;;;;;;;224.80;9.53;;;;;;;20.77;49.21;100592.41;7286854;19;129412;-41
2024/01/08 07:56:22;;;;;;;192.02;8.00;;;;;;;20.73;49.48;100584.91;7288475;19;132362;-36
2024/01/08 07:58:48;;;;;;;237.75;10.20;;;;;;;20.73;49.05;100588.38;7288464;19;130319;-37
2024/01/08 08:01:15;;;;;;;225.07;9.40;;;;;;;20.74;49.65;100602.28;7291276;19;129859;-40
2024/01/08 08:03:40;;;;;;;173.00;7.65;;;;;;;20.74;49.74;100604.88;7289394;19;130958;-39
2024/01/08 08:06:05;;;;;;;178.05;8.20;;;;;;;20.72;49.14;100612.00;7289573;19;132134;-40
2024/01/08 08:08:34;;;;;;;232.20;9.70;;;;;;;20.73;49.56;100611.03;7288585;19;131088;-37
2024/01/08 08:11:00;;;;;;;315.52;12.88;;;;;;;20.70;49.34;100613.88;7288868;19;131159;-43
2024/01/08 08:13:25;;;;;;;159.77;7.30;;;;;;;20.73;49.31;100626.72;7289716;19;129317;-40
2024/01/08 08:15:51;;;;;;;148.43;6.55;;;;;;;20.74;49.21;100615.34;7288043;19;129253;-39
2024/01/08 08:18:16;;;;;;;249.38;10.25;;;;;;;20.71;48.94;100625.97;7288926;19;130285;-38
2024/01/08 08:20:42;;;;;;;272.40;11.23;;;;;;;20.73;49.35;100624.09;7289437;19;131203;-40
2024/01/08 08:23:08;;;;;;;211.25;9.40;;;;;;;20.76;48.84;100629.09;7288815;19;129408;-43
2024/01/08 08:25:33;;;;;;;205.52;8.77;;;;;;;20.76;49.92;100620.44;7286975;19;130405;-37
2024/01/08 08:27:59;;;;;;;251.17;10.10;;;;;;;20.75;48.92;100627.44;7287456;19;130590;-38
2024/01/08 08:30:24;;;;;;;251.13;10.50;;;;;;;20.57;49.17;100603.47;7288511;19;129948;-41
2024/01/08 08:32:50;;;;;;;232.13;10.15;;;;;;;20.75;49.48;100624.84;7285749;19;130505;-39
2024/01/08 08:35:16;;;;;;;229.40;9.88;;;;;;;20.73;48.88;100631.94;7287556;19;129791;-38
2024/01/08 08:37:41;;;;;;;306.80;12.60;;;;;;;20.72;49.27;100638.13;7289957;19;131951;-38
2024/01/08 08:40:07;;;;;;;240.75;10.15;;;;;;;20.72;49.50;100638.94;7296506;19;131689;-38
2024/01/08 08:42:32;;;;;;;180.03;7.90;;;;;;;20.68;49.24;100636.66;7292163;19;130298;-36
2024/01/08 08:44:57;;;;;;;196.90;8.95;;;;;;;20.67;49.51;100637.63;7295637;19;132199;-37
2024/01/08 08:47:23;;;;;;;279.58;12.07;;;;;;;20.72;49.68;100643.34;7292085;19;132682;-41
2024/01/08 08:49:48;;;;;;;191.60;8.73;;;;;;;20.73;49.30;100655.47;7295904;19;130662;-40
2024/01/08 08:52:13;;;;;;;183.48;8.50;;;;;;;20.56;48.87;100635.75;7295011;19;129189;-37
2024/01/08 08:54:39;;;;;;;216.52;10.27;;;;;;;20.68;49.22;100657.56;7292969;19;130003;-34
2024/01/08 08:57:04;;;;;;;234.50;10.00;;;;;;;20.67;49.34;100661.13;7292996;19;132481;-37
2024/01/08 08:59:30;;;;;;;167.23;7.65;;;;;;;20.71;49.27;100673.88;7297182;19;130985;-39
2024/01/08 09:01:55;;;;;;;219.88;9.80;;;;;;;20.69;49.24;100669.69;7294783;19;130447;-41
2024/01/08 09:04:20;;;;;;;223.13;9.27;;;;;;;20.72;48.95;100675.53;7293403;19;129692;-40
2024/01/08 09:06:46;;;;;;;231.55;9.82;;;;;;;20.68;49.52;100678.47;7293337;19;130877;-37
2024/01/08 09:09:12;;;;;;;216.70;9.50;;;;;;;20.73;49.42;100679.81;7294117;19;132590;-33
2024/01/08 09:11:39;;;;;;;234.82;10.13;;;;;;;20.72;49.32;100679.94;7295531;19;131036;-38
2024/01/08 09:14:07;;;;;;;258.85;11.30;;;;;;;20.59;48.92;100679.13;7295215;19;129276;-37
2024/01/08 09:16:32;;;;;;;249.38;10.82;;;;;;;20.65;49.54;100700.44;7292528;19;130651;-39
2024/01/08 09:18:58;;;;;;;247.00;10.43;;;;;;;20.65;49.13;100704.81;7294399;19;130599;-38
2024/01/08 09:21:23;;;;;;;171.98;7.55;;;;;;;20.66;49.37;100702.09;7295873;19;129436;-39
2024/01/08 09:23:49;;;;;;;276.70;11.88;;;;;;;20.70;49.01;100705.34;7294465;19;131360;-39
2024/01/08 09:26:15;;;;;;;210.18;9.30;;;;;;;20.71;49.04;100707.84;7293568;19;130196;-42
2024/01/08 09:28:41;;;;;;;241.95;10.55;;;;;;;20.72;48.54;100717.34;7293747;19;130395;-41
2024/01/08 09:31:07;;;;;;;211.38;9.10;;;;;;;20.68;48.99;100717.66;7294942;19;129947;-40
2024/01/08 09:33:32;;;;;;;227.87;9.93;;;;;;;20.67;48.88;100713.41;7294350;19;129927;-39
2024/01/08 09:35:58;;;;;;;210.07;8.67;;;;;;;20.65;48.60;100720.50;7294320;19;130104;-40
2024/01/08 09:38:23;;;;;;;210.73;9.02;;;;;;;20.69;48.83;100719.34;7293187;19;130143;-39
2024/01/08 09:40:49;;;;;;;216.30;9.40;;;;;;;20.59;49.36;100692.19;7293438;19;132289;-38
2024/01/08 09:43:15;;;;;;;238.70;9.83;;;;;;;20.68;49.10;100715.91;7293850;19;129266;-36
2024/01/08 09:46:03;;;;;;;258.85;10.40;;;;;;;20.69;49.09;100716.75;7291388;19;131024;-35
2024/01/08 09:48:30;;;;;;;238.95;10.50;;;;;;;20.67;48.87;100708.16;7293867;19;132216;-39
2024/01/08 09:50:55;;;;;;;169.05;7.53;;;;;;;20.62;48.87;100712.88;7289662;19;130017;-40
2024/01/08 09:53:21;;;;;;;202.57;8.50;;;;;;;20.67;48.67;100718.63;7293800;19;129923;-37
2024/01/08 09:55:48;;;;;;;253.93;10.68;;;;;;;20.71;48.98;100725.28;7291636;19;129915;-38
2024/01/08 09:58:14;;;;;;;248.98;10.63;;;;;;;20.69;49.06;100719.34;7293480;19;130091;-38
2024/01/08 10:00:42;;;;;;;181.20;7.32;;;;;;;20.65;49.19;100720.50;7294466;19;131508;-37
2024/01/08 10:03:08;;;;;;;257.77;10.82;;;;;;;20.66;48.99;100720.38;7288275;19;131023;-35
2024/01/08 10:05:35;;;;;;;286.10;11.82;;;;;;;20.67;48.91;100723.84;7286357;19;130534;-36
2024/01/08 10:08:01;;;;;;;219.43;9.23;;;;;;;20.70;48.59;100718.41;7290150;19;131404;-37
2024/01/08 10:10:28;;;;;;;173.45;7.78;;;;;;;20.67;48.79;100724.69;7290353;19;129690;-37
2024/01/08 10:12:54;;;;;;;212.57;8.90;;;;;;;20.67;49.42;100723.84;7290972;19;129083;-39
2024/01/08 10:15:20;;;;;;;275.50;11.70;;;;;;;20.67;48.67;100718.63;7289247;19;129434;-47
2024/01/08 10:17:52;;;;;;;212.20;8.93;;;;;;;20.66;49.11;100719.53;7290857;19;131674;-36
2024/01/08 10:20:18;;;;;;;185.23;7.82;;;;;;;20.68;49.25;100720.28;7291717;19;129373;-39
2024/01/08 10:22:47;;;;;;;264.63;11.73;;;;;;;20.69;49.36;100717.56;7289588;19;129213;-40
2024/01/08 10:25:21;;;;;;;265.60;10.77;;;;;;;20.65;49.24;100718.72;7288171;19;130035;-38
2024/01/08 10:27:46;;;;;;;185.05;8.02;;;;;;;20.69;49.43;100717.56;7293197;19;132644;-37
2024/01/08 10:30:11;;;;;;;218.40;9.82;;;;;;;20.68;48.80;100720.28;7293508;19;131667;-39
2024/01/08 10:32:37;;;;;;;190.40;8.30;;;;;;;20.67;49.38;100719.47;7291717;19;129244;-39
2024/01/08 10:35:04;;;;;;;263.88;10.50;;;;;;;20.61;49.15;100714.63;7291033;19;130139;-39
2024/01/08 10:37:30;;;;;;;236.18;9.95;;;;;;;20.69;49.27;100727.19;7292302;19;130417;-37
2024/01/08 10:39:56;;;;;;;227.40;9.77;;;;;;;20.69;48.92;100727.19;7294337;19;130682;-40
2024/01/08 10:42:22;;;;;;;231.93;9.80;;;;;;;20.72;49.00;100727.78;7291754;19;129964;-41
2024/01/08 10:44:47;;;;;;;226.93;9.43;;;;;;;20.68;48.80;100720.28;7291089;19;130944;-34
2024/01/08 10:47:22;;;;;;;224.13;9.02;;;;;;;20.69;49.45;100727.19;7289717;19;130396;-36
2024/01/08 10:49:50;;;;;;;215.88;9.25;;;;;;;20.72;48.83;100722.56;7294345;19;134260;-41
2024/01/08 10:52:41;;;;;;;76.05;4.28;;;;;;;20.66;49.35;100719.53;7293262;19;130856;-40
2024/01/08 10:55:10;;;;;;;175.35;7.20;;;;;;;20.66;48.86;100732.59;7291790;19;130836;-34